Time;durP1;ratioP1;P1;durP2;ratioP2;P2;SDS_P1;SDS_P2;PMS_P1;PMS_P2;Temp;Humidity;BMP_temperature;BMP_pressure;BME280_temperature;BME280_humidity;BME280_pressure;Samples;Min_cycle;Max_cycle;Signal;HPM_P1;HPM_P2
2023/12/12 00:00:19;;;;;;;6.25;1.23;;;7.50;99.90;;;;;;5047644;28;20033;-71
2023/12/12 00:02:45;;;;;;;6.65;1.50;;;7.50;99.90;;;;;;5028851;28;20408;-72
2023/12/12 00:05:13;;;;;;;5.45;1.55;;;7.50;99.90;;;;;;5047909;28;20513;-73
2023/12/12 00:07:39;;;;;;;7.45;1.25;;;7.40;99.90;;;;;;5047872;28;20067;-72
2023/12/12 00:10:05;;;;;;;6.70;1.23;;;7.40;99.90;;;;;;5025294;28;20068;-72
2023/12/12 00:12:31;;;;;;;13.75;2.88;;;7.30;99.90;;;;;;5027843;28;20040;-72
2023/12/12 00:14:57;;;;;;;10.02;1.50;;;7.30;99.90;;;;;;5026034;28;20030;-72
2023/12/12 00:17:22;;;;;;;9.35;1.20;;;7.20;99.90;;;;;;5027707;28;20060;-71
2023/12/12 00:19:48;;;;;;;12.25;1.77;;;7.20;99.90;;;;;;5025244;28;20161;-72
2023/12/12 00:22:13;;;;;;;7.25;1.33;;;7.20;99.90;;;;;;5026456;28;20021;-72
2023/12/12 00:24:39;;;;;;;5.40;0.80;;;7.10;99.90;;;;;;5027632;28;20037;-71
2023/12/12 00:27:04;;;;;;;9.95;1.73;;;7.10;99.90;;;;;;5013967;28;20037;-72
2023/12/12 00:29:30;;;;;;;6.72;1.60;;;7.10;99.90;;;;;;5034101;28;20037;-73
2023/12/12 00:31:56;;;;;;;4.97;1.23;;;7.00;99.90;;;;;;5008757;28;20537;-72
2023/12/12 00:34:21;;;;;;;3.08;0.95;;;7.00;99.90;;;;;;5027793;28;20036;-74
2023/12/12 00:36:47;;;;;;;3.10;1.00;;;7.00;99.90;;;;;;5026701;28;20477;-72
2023/12/12 00:39:12;;;;;;;3.95;0.90;;;6.90;99.90;;;;;;5038152;28;20036;-73
2023/12/12 00:41:38;;;;;;;7.65;0.88;;;6.90;99.90;;;;;;5045553;28;20021;-72
2023/12/12 00:44:04;;;;;;;10.82;1.67;;;6.90;99.90;;;;;;5036324;28;20079;-72
2023/12/12 00:46:29;;;;;;;1.73;0.80;;;6.90;99.90;;;;;;5044236;28;20037;-72
2023/12/12 00:48:55;;;;;;;5.93;1.15;;;6.80;99.90;;;;;;5042330;28;20053;-74
2023/12/12 00:51:20;;;;;;;11.95;1.08;;;6.80;99.90;;;;;;5026166;28;20032;-72
2023/12/12 00:53:46;;;;;;;7.10;1.60;;;6.80;99.90;;;;;;5034455;28;20122;-71
2023/12/12 00:56:12;;;;;;;4.18;0.57;;;6.80;99.90;;;;;;5035460;28;20502;-72
2023/12/12 00:58:37;;;;;;;6.47;1.67;;;6.70;99.90;;;;;;5025684;28;20041;-73
2023/12/12 01:01:03;;;;;;;7.22;1.30;;;6.70;99.90;;;;;;5030419;28;20401;-72
2023/12/12 01:03:28;;;;;;;9.02;1.40;;;6.70;99.90;;;;;;5032046;28;20124;-73
2023/12/12 01:05:54;;;;;;;7.03;1.38;;;6.70;99.90;;;;;;5032307;28;20033;-71
2023/12/12 01:08:20;;;;;;;6.10;1.38;;;6.70;99.90;;;;;;5051053;28;20469;-73
2023/12/12 01:10:45;;;;;;;6.40;0.77;;;6.60;99.90;;;;;;5031973;28;20168;-71
2023/12/12 01:13:11;;;;;;;7.32;1.20;;;6.60;99.90;;;;;;5050758;28;20056;-71
2023/12/12 01:15:36;;;;;;;8.57;1.10;;;6.50;99.90;;;;;;5050758;28;20044;-73
2023/12/12 01:18:02;;;;;;;8.90;1.92;;;6.50;99.90;;;;;;5031596;28;20540;-73
2023/12/12 01:20:27;;;;;;;4.18;1.20;;;6.50;99.90;;;;;;5032292;28;20033;-72
2023/12/12 01:22:53;;;;;;;7.57;1.50;;;6.50;99.90;;;;;;5023808;28;20026;-72
2023/12/12 01:25:18;;;;;;;2.80;0.95;;;6.40;99.90;;;;;;5012895;28;20033;-71
2023/12/12 01:27:44;;;;;;;6.50;1.25;;;6.40;99.90;;;;;;5011812;28;20057;-72
2023/12/12 01:30:10;;;;;;;6.57;1.20;;;6.40;99.90;;;;;;5030455;28;20409;-72
2023/12/12 01:32:36;;;;;;;8.07;1.55;;;6.40;99.90;;;;;;5032197;28;20435;-72
2023/12/12 01:35:02;;;;;;;3.20;1.08;;;6.30;99.90;;;;;;5031289;28;20041;-72
2023/12/12 01:37:27;;;;;;;7.90;1.15;;;6.30;99.90;;;;;;5032913;28;20522;-74
2023/12/12 01:39:53;;;;;;;11.35;1.85;;;6.20;99.90;;;;;;5028034;28;20485;-72
2023/12/12 01:42:18;;;;;;;7.97;1.17;;;6.20;99.90;;;;;;5050651;28;20021;-72
2023/12/12 01:44:44;;;;;;;6.68;1.40;;;6.20;99.90;;;;;;5035856;28;20037;-73
2023/12/12 01:47:10;;;;;;;7.47;1.48;;;6.10;99.90;;;;;;5012668;28;20029;-71
2023/12/12 01:49:36;;;;;;;8.63;1.50;;;6.10;99.90;;;;;;5012428;28;20037;-72
2023/12/12 01:52:02;;;;;;;10.75;1.10;;;6.10;99.90;;;;;;5013014;28;20489;-75
2023/12/12 01:54:29;;;;;;;6.05;1.73;;;6.00;99.90;;;;;;5028346;28;20049;-72
2023/12/12 01:56:55;;;;;;;5.10;1.40;;;6.00;99.90;;;;;;5029262;28;20485;-72
2023/12/12 01:59:22;;;;;;;5.63;1.40;;;6.00;99.90;;;;;;5030179;28;20337;-74
2023/12/12 02:01:48;;;;;;;2.75;1.30;;;5.90;99.90;;;;;;5029332;28;20037;-72
2023/12/12 02:04:15;;;;;;;7.18;1.58;;;5.90;99.90;;;;;;5029062;28;20439;-72
2023/12/12 02:06:43;;;;;;;6.60;1.85;;;5.90;99.90;;;;;;5028577;28;20029;-72
2023/12/12 02:09:09;;;;;;;13.35;1.63;;;5.90;99.90;;;;;;5029783;28;20041;-71
2023/12/12 02:11:35;;;;;;;9.50;1.60;;;5.90;99.90;;;;;;5028655;28;20033;-74
2023/12/12 02:14:00;;;;;;;9.45;2.28;;;5.90;99.90;;;;;;5027186;28;20408;-72
2023/12/12 02:16:26;;;;;;;6.10;1.45;;;5.80;99.90;;;;;;5030012;28;20374;-72
2023/12/12 02:18:52;;;;;;;5.85;1.42;;;5.80;99.90;;;;;;5029005;28;20476;-74
2023/12/12 02:21:21;;;;;;;5.82;1.63;;;5.80;99.90;;;;;;5028583;28;20037;-76
2023/12/12 02:23:49;;;;;;;9.68;2.25;;;5.80;99.90;;;;;;5023911;28;20065;-72
2023/12/12 02:26:15;;;;;;;11.35;1.45;;;5.80;99.90;;;;;;5029515;28;20412;-73
2023/12/12 02:28:41;;;;;;;9.30;2.22;;;5.80;99.90;;;;;;5032557;28;20049;-72
2023/12/12 02:31:06;;;;;;;7.90;1.60;;;5.80;99.90;;;;;;5030674;28;20445;-72
2023/12/12 02:33:32;;;;;;;10.68;1.70;;;5.90;99.90;;;;;;5048473;28;20032;-72
2023/12/12 02:35:57;;;;;;;10.25;2.22;;;5.90;99.90;;;;;;5027327;28;20041;-74
2023/12/12 02:38:23;;;;;;;11.10;2.08;;;5.90;99.90;;;;;;5028226;28;20042;-73
2023/12/12 02:40:48;;;;;;;7.13;2.25;;;6.00;99.90;;;;;;5028650;28;20038;-75
2023/12/12 02:43:14;;;;;;;7.53;1.77;;;6.00;99.90;;;;;;5027992;28;20033;-75
2023/12/12 02:45:40;;;;;;;6.18;2.50;;;6.10;99.90;;;;;;5029381;28;20393;-71
2023/12/12 02:48:05;;;;;;;11.05;2.30;;;6.10;99.90;;;;;;5030043;28;20041;-75
2023/12/12 02:50:31;;;;;;;6.30;2.45;;;6.20;99.90;;;;;;5031080;28;20044;-71
2023/12/12 02:52:57;;;;;;;7.10;2.60;;;6.20;99.90;;;;;;5026419;28;20055;-72
2023/12/12 02:55:22;;;;;;;13.95;2.40;;;6.20;99.90;;;;;;5028840;28;20041;-71
2023/12/12 02:57:48;;;;;;;16.08;3.15;;;6.20;99.90;;;;;;5027284;28;20047;-75
2023/12/12 03:00:14;;;;;;;8.10;2.90;;;6.20;99.90;;;;;;5029848;28;20025;-72
2023/12/12 03:02:39;;;;;;;15.70;3.28;;;6.20;99.90;;;;;;5042287;28;20029;-72
2023/12/12 03:05:05;;;;;;;12.93;3.53;;;6.20;99.90;;;;;;5029170;28;20043;-71
2023/12/12 03:07:31;;;;;;;8.18;3.65;;;6.20;99.90;;;;;;5048829;28;20460;-72
2023/12/12 03:09:56;;;;;;;8.38;3.45;;;6.30;99.90;;;;;;5046125;28;20704;-71
2023/12/12 03:12:22;;;;;;;11.68;3.88;;;6.30;99.90;;;;;;5027423;28;20037;-73
2023/12/12 03:14:47;;;;;;;14.68;3.53;;;6.30;99.90;;;;;;5027841;28;20040;-72
2023/12/12 03:17:13;;;;;;;14.48;4.22;;;6.30;99.90;;;;;;5032464;28;20032;-72
2023/12/12 03:19:39;;;;;;;11.05;3.13;;;6.30;99.90;;;;;;5048524;28;20108;-72
2023/12/12 03:22:04;;;;;;;12.38;4.45;;;6.30;99.90;;;;;;5046528;28;20503;-72
2023/12/12 03:24:30;;;;;;;16.90;3.85;;;6.30;99.90;;;;;;5010749;28;20021;-72
2023/12/12 03:26:55;;;;;;;23.45;5.45;;;6.30;99.90;;;;;;5027779;28;20026;-73
2023/12/12 03:29:21;;;;;;;13.40;5.10;;;6.30;99.90;;;;;;5030815;28;20163;-71
2023/12/12 03:31:46;;;;;;;17.80;4.65;;;6.20;99.90;;;;;;5010090;28;20168;-73
2023/12/12 03:34:12;;;;;;;12.88;3.78;;;6.20;99.90;;;;;;5028751;28;20100;-73
2023/12/12 03:36:44;;;;;;;11.88;4.03;;;6.20;99.90;;;;;;5028261;28;20045;-76
2023/12/12 03:39:10;;;;;;;13.13;4.30;;;6.20;99.90;;;;;;5043639;28;20032;-71
2023/12/12 03:41:36;;;;;;;18.35;5.40;;;6.20;99.90;;;;;;5048215;28;20614;-71
2023/12/12 03:44:01;;;;;;;13.13;4.50;;;6.20;99.90;;;;;;5039470;28;20034;-72
2023/12/12 03:46:27;;;;;;;18.77;5.15;;;6.20;99.90;;;;;;5025353;28;20433;-73
2023/12/12 03:48:52;;;;;;;14.73;4.65;;;6.20;99.90;;;;;;5045277;28;20743;-72
2023/12/12 03:51:18;;;;;;;15.98;4.85;;;6.20;99.90;;;;;;5047901;28;20033;-71
2023/12/12 03:53:43;;;;;;;14.40;4.65;;;6.30;99.90;;;;;;5025547;28;20087;-72
2023/12/12 03:56:09;;;;;;;15.85;4.40;;;6.20;99.90;;;;;;5015493;28;20489;-72
2023/12/12 03:58:35;;;;;;;13.55;4.20;;;6.20;99.90;;;;;;5048311;28;20033;-73
2023/12/12 04:01:01;;;;;;;21.30;5.53;;;6.10;99.90;;;;;;5028289;28;20129;-70
2023/12/12 04:03:27;;;;;;;25.80;6.15;;;6.10;99.90;;;;;;5027133;28;20043;-72
2023/12/12 04:05:52;;;;;;;14.40;4.68;;;6.10;99.90;;;;;;5044796;28;20032;-71
2023/12/12 04:08:18;;;;;;;17.35;5.72;;;6.10;99.90;;;;;;5030261;28;20048;-72
2023/12/12 04:10:43;;;;;;;33.83;6.63;;;6.10;99.90;;;;;;5046889;28;20035;-74
2023/12/12 04:13:09;;;;;;;16.63;5.40;;;6.10;99.90;;;;;;5030255;28;20028;-74
2023/12/12 04:15:35;;;;;;;19.20;5.32;;;6.10;99.90;;;;;;5030232;28;20112;-72
2023/12/12 04:18:01;;;;;;;18.33;6.28;;;6.00;99.90;;;;;;5029044;28;20033;-71
2023/12/12 04:20:26;;;;;;;16.27;6.18;;;6.00;99.90;;;;;;5047865;28;20064;-72
2023/12/12 04:22:52;;;;;;;18.40;6.25;;;6.00;99.90;;;;;;5034765;28;20098;-72
2023/12/12 04:25:19;;;;;;;20.98;6.50;;;6.00;99.90;;;;;;5027752;28;20630;-72
2023/12/12 04:27:45;;;;;;;27.60;6.68;;;6.00;99.90;;;;;;5026896;28;20033;-72
2023/12/12 04:30:11;;;;;;;14.02;5.25;;;6.00;99.90;;;;;;5036314;28;20029;-74
2023/12/12 04:32:36;;;;;;;22.52;6.38;;;6.00;99.90;;;;;;5025876;28;20524;-72
2023/12/12 04:35:05;;;;;;;25.42;5.82;;;6.00;99.90;;;;;;5035981;28;23041;-72
2023/12/12 04:37:31;;;;;;;19.38;6.85;;;6.00;99.90;;;;;;5026306;28;20090;-71
2023/12/12 04:39:56;;;;;;;21.27;6.68;;;6.00;99.90;;;;;;5026516;28;20512;-72
2023/12/12 04:42:23;;;;;;;23.08;6.18;;;6.00;99.90;;;;;;5027682;28;20033;-72
2023/12/12 04:44:49;;;;;;;13.57;5.63;;;6.00;99.90;;;;;;5026409;28;20033;-72
2023/12/12 04:47:15;;;;;;;19.95;5.95;;;6.00;99.90;;;;;;5035599;28;20462;-72
2023/12/12 04:49:40;;;;;;;26.52;7.30;;;6.00;99.90;;;;;;5026927;28;20032;-73
2023/12/12 04:52:06;;;;;;;16.15;6.32;;;6.00;99.90;;;;;;5017283;28;20044;-73
2023/12/12 04:54:31;;;;;;;17.17;5.40;;;6.00;99.90;;;;;;5039023;28;20091;-71
2023/12/12 04:56:58;;;;;;;21.67;6.20;;;6.00;99.90;;;;;;5036606;28;20052;-72
2023/12/12 04:59:23;;;;;;;23.00;6.68;;;6.00;99.90;;;;;;5025794;28;20108;-71
2023/12/12 05:01:49;;;;;;;18.75;6.20;;;6.00;99.90;;;;;;5024734;28;20458;-74
2023/12/12 05:04:15;;;;;;;19.38;6.20;;;6.00;99.90;;;;;;5036158;28;20029;-72
2023/12/12 05:06:40;;;;;;;18.67;6.55;;;6.00;99.90;;;;;;5038624;28;20565;-71
2023/12/12 05:09:06;;;;;;;15.55;6.07;;;6.00;99.90;;;;;;5024643;28;20605;-72
2023/12/12 05:11:32;;;;;;;25.98;7.70;;;6.10;99.90;;;;;;5038387;28;20569;-72
2023/12/12 05:13:57;;;;;;;23.15;7.10;;;6.00;99.90;;;;;;5026938;28;20116;-73
2023/12/12 05:16:24;;;;;;;21.58;7.22;;;6.10;99.90;;;;;;5035501;28;20038;-72
2023/12/12 05:18:49;;;;;;;18.52;6.25;;;6.10;99.90;;;;;;5028299;28;20034;-73
2023/12/12 05:21:16;;;;;;;28.88;6.07;;;6.20;99.90;;;;;;5039469;28;20042;-72
2023/12/12 05:23:42;;;;;;;19.27;6.63;;;6.20;99.90;;;;;;5031098;28;20457;-72
2023/12/12 05:26:08;;;;;;;31.92;7.28;;;6.30;99.90;;;;;;5045643;28;20121;-73
2023/12/12 05:28:33;;;;;;;21.27;6.38;;;6.30;99.90;;;;;;5028490;28;20090;-73
2023/12/12 05:30:59;;;;;;;19.88;6.28;;;6.30;99.90;;;;;;5021179;28;20207;-73
2023/12/12 05:33:25;;;;;;;19.40;5.40;;;6.30;99.90;;;;;;5039226;28;20075;-72
2023/12/12 05:35:50;;;;;;;28.02;6.88;;;6.30;99.90;;;;;;5014773;28;20045;-74
2023/12/12 05:38:16;;;;;;;22.45;6.53;;;6.30;99.90;;;;;;5036414;28;20049;-73
2023/12/12 05:40:42;;;;;;;26.27;6.68;;;6.40;99.90;;;;;;5036958;28;20041;-73
2023/12/12 05:43:07;;;;;;;24.65;6.40;;;6.40;99.90;;;;;;5029962;28;20090;-73
2023/12/12 05:45:33;;;;;;;24.05;7.20;;;6.50;99.90;;;;;;5039776;28;20567;-74
2023/12/12 05:47:58;;;;;;;42.97;8.40;;;6.50;99.90;;;;;;5027552;28;20057;-74
2023/12/12 05:50:24;;;;;;;18.73;6.53;;;6.50;99.90;;;;;;5007453;28;20102;-73
2023/12/12 05:58:00;;;;;;;25.88;7.10;;;6.50;99.90;;;;;;5214378;22;20083;-78
2023/12/12 06:00:29;;;;;;;28.58;9.10;;;6.50;99.90;;;;;;5051302;28;20033;-78
2023/12/12 06:02:54;;;;;;;31.65;7.72;;;6.50;99.90;;;;;;5028997;28;20143;-76
2023/12/12 06:05:20;;;;;;;28.58;8.73;;;6.50;99.90;;;;;;5029330;28;20108;-77
2023/12/12 06:07:46;;;;;;;30.25;8.38;;;6.50;99.90;;;;;;5027070;28;20029;-78
2023/12/12 06:10:12;;;;;;;24.80;8.43;;;6.50;99.90;;;;;;5032378;28;20054;-78
2023/12/12 06:12:37;;;;;;;30.52;10.07;;;6.60;99.90;;;;;;5031207;28;20072;-79
2023/12/12 06:15:07;;;;;;;28.38;9.75;;;6.60;99.90;;;;;;5029853;28;20044;-77
2023/12/12 06:17:36;;;;;;;33.95;8.25;;;6.60;99.90;;;;;;5048908;28;20491;-77
2023/12/12 06:20:02;;;;;;;24.30;8.20;;;6.60;99.90;;;;;;5029854;28;20043;-77
2023/12/12 06:22:28;;;;;;;36.42;9.20;;;6.60;99.90;;;;;;5030980;28;20084;-78
2023/12/12 06:24:54;;;;;;;24.08;8.23;;;6.60;99.90;;;;;;5032659;28;20041;-79
2023/12/12 06:27:20;;;;;;;25.88;7.15;;;6.70;99.90;;;;;;5048848;28;20017;-77
2023/12/12 06:29:46;;;;;;;33.38;7.95;;;6.70;99.90;;;;;;5049948;28;20524;-78
2023/12/12 06:32:12;;;;;;;24.52;7.93;;;6.70;99.90;;;;;;5034951;28;20396;-80
2023/12/12 06:34:37;;;;;;;29.70;7.40;;;6.70;99.90;;;;;;5032093;28;20111;-78
2023/12/12 06:37:03;;;;;;;22.02;7.22;;;6.70;99.90;;;;;;5030386;28;20037;-79
2023/12/12 06:39:28;;;;;;;27.23;7.30;;;6.70;99.90;;;;;;5051291;28;20032;-77
2023/12/12 06:41:54;;;;;;;26.70;8.93;;;6.80;99.90;;;;;;5048189;28;20037;-76
2023/12/12 06:44:20;;;;;;;34.35;8.18;;;6.80;99.90;;;;;;5049497;28;20037;-78
2023/12/12 06:46:45;;;;;;;26.17;7.03;;;6.80;99.90;;;;;;5025438;28;20034;-76
2023/12/12 06:49:11;;;;;;;26.02;7.00;;;6.80;99.90;;;;;;5027628;28;20025;-77
2023/12/12 06:51:36;;;;;;;32.20;6.95;;;6.90;99.90;;;;;;5042496;28;20101;-76
2023/12/12 06:54:03;;;;;;;42.10;7.60;;;6.90;99.90;;;;;;5026999;28;20033;-76
2023/12/12 06:56:28;;;;;;;29.23;7.22;;;6.90;99.90;;;;;;5029826;28;20447;-76
2023/12/12 06:58:54;;;;;;;26.73;7.25;;;6.90;99.90;;;;;;5047262;28;20029;-76
2023/12/12 07:01:20;;;;;;;31.02;7.50;;;6.90;99.90;;;;;;5027899;28;20052;-78
2023/12/12 07:03:45;;;;;;;26.65;6.63;;;6.90;99.90;;;;;;5027580;28;20048;-76
2023/12/12 07:06:11;;;;;;;19.25;5.60;;;6.90;99.90;;;;;;5046224;28;20039;-77
2023/12/12 07:08:37;;;;;;;23.33;6.78;;;6.90;99.90;;;;;;5046098;28;20092;-77
2023/12/12 07:11:02;;;;;;;23.80;6.85;;;7.00;99.90;;;;;;5027066;28;20036;-77
2023/12/12 07:13:28;;;;;;;26.23;6.88;;;6.90;99.90;;;;;;5028210;28;20140;-78
2023/12/12 07:15:54;;;;;;;20.42;6.68;;;7.00;99.90;;;;;;5027624;28;20060;-78
2023/12/12 07:18:19;;;;;;;17.63;5.55;;;7.00;99.90;;;;;;5047448;28;20033;-77
2023/12/12 07:20:45;;;;;;;19.42;6.03;;;7.00;99.90;;;;;;5047717;28;20056;-78
2023/12/12 07:23:11;;;;;;;20.40;5.95;;;7.00;99.90;;;;;;5027515;28;20048;-78
2023/12/12 07:25:38;;;;;;;20.65;6.95;;;7.10;99.90;;;;;;5027968;28;20495;-75
2023/12/12 07:28:04;;;;;;;20.00;5.57;;;7.10;99.90;;;;;;5043201;28;20048;-78
2023/12/12 07:30:30;;;;;;;14.90;4.95;;;7.10;99.90;;;;;;5047357;28;20036;-77
2023/12/12 07:32:56;;;;;;;17.75;4.85;;;7.10;99.90;;;;;;5028203;28;20038;-79
2023/12/12 07:35:21;;;;;;;20.15;5.80;;;7.10;99.90;;;;;;5049710;28;20036;-79
2023/12/12 07:37:47;;;;;;;20.90;5.80;;;7.20;99.90;;;;;;5032260;28;20124;-79
2023/12/12 07:40:13;;;;;;;15.73;5.88;;;7.20;99.90;;;;;;5030831;28;20036;-78
2023/12/12 07:42:39;;;;;;;12.77;4.90;;;7.10;99.90;;;;;;5050811;28;20480;-77
2023/12/12 07:45:06;;;;;;;13.02;4.78;;;7.20;99.90;;;;;;5029927;28;20033;-80
2023/12/12 07:47:32;;;;;;;16.65;5.05;;;7.20;99.90;;;;;;5051967;28;20434;-80
2023/12/12 07:49:58;;;;;;;20.65;4.53;;;7.20;99.90;;;;;;5029393;28;20044;-80
2023/12/12 07:52:24;;;;;;;11.70;3.97;;;7.20;99.90;;;;;;5029501;28;20021;-79
2023/12/12 07:54:49;;;;;;;14.20;4.30;;;7.20;99.90;;;;;;5047342;28;20076;-78
2023/12/12 07:57:15;;;;;;;19.30;4.93;;;7.20;99.90;;;;;;5030971;28;20087;-79
2023/12/12 07:59:42;;;;;;;20.38;5.13;;;7.20;99.90;;;;;;5030679;28;20025;-79
2023/12/12 08:02:07;;;;;;;16.65;5.22;;;7.20;99.90;;;;;;5033530;28;20111;-76
2023/12/12 08:04:33;;;;;;;16.02;5.00;;;7.30;99.90;;;;;;5048449;28;20028;-79
2023/12/12 08:06:59;;;;;;;20.40;5.30;;;7.30;99.90;;;;;;5047808;28;20132;-80
2023/12/12 08:09:25;;;;;;;16.45;4.97;;;7.30;99.90;;;;;;5031885;28;20476;-78
2023/12/12 08:11:52;;;;;;;21.02;5.00;;;7.30;99.90;;;;;;5031314;28;20043;-79
2023/12/12 08:14:17;;;;;;;20.38;4.80;;;7.30;99.90;;;;;;5033452;28;20124;-78
2023/12/12 08:16:43;;;;;;;16.55;6.07;;;7.30;99.90;;;;;;5028264;28;20116;-79
2023/12/12 08:19:09;;;;;;;20.70;4.60;;;7.40;99.90;;;;;;5030533;28;20810;-77
2023/12/12 08:21:35;;;;;;;18.35;5.20;;;7.40;99.90;;;;;;5046733;28;20029;-80
2023/12/12 08:24:01;;;;;;;16.13;5.00;;;7.50;99.90;;;;;;5032075;28;20047;-80
2023/12/12 08:26:27;;;;;;;19.23;5.72;;;7.50;99.90;;;;;;5046272;28;20037;-80
2023/12/12 08:28:52;;;;;;;20.58;5.90;;;7.40;99.90;;;;;;5027803;28;20703;-80
2023/12/12 08:31:18;;;;;;;28.58;7.15;;;7.50;99.90;;;;;;5029976;28;20045;-78
2023/12/12 08:33:43;;;;;;;33.33;7.90;;;7.50;99.90;;;;;;5047928;28;20128;-79
2023/12/12 08:36:10;;;;;;;26.48;7.03;;;7.50;99.90;;;;;;5028183;28;20094;-76
2023/12/12 08:38:36;;;;;;;36.05;6.60;;;7.50;99.90;;;;;;5042519;28;20124;-77
2023/12/12 08:41:02;;;;;;;27.10;6.38;;;7.50;99.90;;;;;;5027542;28;20029;-78
2023/12/12 08:43:28;;;;;;;25.85;6.25;;;7.60;99.90;;;;;;5022921;28;20041;-79
2023/12/12 08:45:55;;;;;;;21.10;6.65;;;7.60;99.90;;;;;;5030684;28;20045;-78
2023/12/12 08:48:21;;;;;;;40.58;7.90;;;7.60;99.90;;;;;;5049217;28;20127;-79
2023/12/12 08:50:48;;;;;;;23.23;7.22;;;7.60;99.90;;;;;;5047741;28;20120;-77
2023/12/12 08:53:15;;;;;;;27.65;6.65;;;7.60;99.90;;;;;;5025232;28;20037;-79
2023/12/12 08:55:42;;;;;;;26.65;6.63;;;7.70;99.90;;;;;;5045755;28;20468;-79
2023/12/12 08:58:07;;;;;;;32.75;6.15;;;7.70;99.90;;;;;;5050814;28;20056;-79
2023/12/12 09:00:33;;;;;;;31.52;7.40;;;7.70;99.90;;;;;;5043202;28;20087;-78
2023/12/12 09:02:59;;;;;;;33.33;7.32;;;7.70;99.90;;;;;;5045107;28;20067;-80
2023/12/12 09:05:24;;;;;;;23.33;6.03;;;7.80;99.90;;;;;;5034239;28;20041;-76
2023/12/12 09:07:51;;;;;;;34.60;6.65;;;7.80;99.90;;;;;;5043551;28;20025;-76
2023/12/12 09:10:17;;;;;;;27.48;6.20;;;7.90;99.90;;;;;;5026596;28;20508;-77
2023/12/12 09:12:42;;;;;;;28.00;6.20;;;7.90;99.90;;;;;;5044390;28;20055;-77
2023/12/12 09:15:08;;;;;;;23.15;5.57;;;8.00;99.90;;;;;;5048789;28;20039;-80
2023/12/12 09:17:33;;;;;;;31.25;5.60;;;7.90;99.90;;;;;;5031807;28;20040;-79
2023/12/12 09:20:00;;;;;;;23.70;6.38;;;8.00;99.90;;;;;;5045297;28;20437;-78
2023/12/12 09:22:27;;;;;;;20.25;4.07;;;8.00;99.90;;;;;;5027965;28;20029;-81
2023/12/12 09:24:52;;;;;;;19.45;5.10;;;8.00;99.90;;;;;;5031174;28;20056;-79
2023/12/12 09:27:18;;;;;;;22.48;5.13;;;8.10;99.90;;;;;;5053246;28;20071;-79
2023/12/12 09:29:43;;;;;;;23.92;5.53;;;8.00;99.90;;;;;;5053432;28;20056;-76
2023/12/12 09:32:09;;;;;;;22.42;5.05;;;8.00;99.90;;;;;;5052308;28;20036;-78
2023/12/12 09:34:35;;;;;;;19.25;4.32;;;8.00;99.90;;;;;;5032183;28;20036;-79
2023/12/12 09:37:00;;;;;;;24.60;5.57;;;8.00;99.90;;;;;;5053129;28;21785;-79
2023/12/12 09:39:26;;;;;;;31.92;4.47;;;8.00;99.90;;;;;;5050466;28;20029;-78
2023/12/12 09:41:53;;;;;;;26.67;4.07;;;8.00;99.90;;;;;;5049882;28;20047;-80
2023/12/12 09:44:19;;;;;;;19.98;4.30;;;8.00;99.90;;;;;;5032409;28;20024;-80
2023/12/12 09:46:46;;;;;;;20.83;4.75;;;8.00;99.90;;;;;;5033698;28;20212;-77
2023/12/12 09:49:13;;;;;;;31.60;4.25;;;8.00;99.90;;;;;;5046778;28;20050;-78
2023/12/12 09:51:41;;;;;;;28.60;4.60;;;8.00;99.90;;;;;;5050108;28;20056;-77
2023/12/12 09:54:07;;;;;;;34.60;5.10;;;8.10;99.90;;;;;;5032706;28;20079;-77
2023/12/12 09:56:39;;;;;;;26.40;5.30;;;8.10;99.90;;;;;;5049794;28;20388;-78
2023/12/12 09:59:08;;;;;;;19.60;3.60;;;8.20;99.90;;;;;;5028232;28;20124;-79
2023/12/12 10:01:36;;;;;;;27.00;5.00;;;8.20;99.90;;;;;;5031904;28;20532;-78
2023/12/12 10:04:06;;;;;;;30.15;5.25;;;8.30;99.90;;;;;;5031433;28;20140;-77
2023/12/12 10:06:39;;;;;;;21.15;3.85;;;8.30;99.90;;;;;;5046710;28;20412;-79
2023/12/12 10:09:06;;;;;;;25.50;4.45;;;8.30;99.90;;;;;;5028207;28;20042;-79
2023/12/12 10:11:31;;;;;;;22.05;3.45;;;8.30;99.90;;;;;;5032172;28;20064;-75
2023/12/12 10:14:00;;;;;;;22.83;3.50;;;8.40;99.90;;;;;;5032718;28;20119;-80
2023/12/12 10:16:26;;;;;;;28.08;4.45;;;8.50;99.90;;;;;;5032005;28;20074;-78
2023/12/12 10:18:52;;;;;;;26.25;4.38;;;8.50;99.90;;;;;;5048470;28;20037;-78
2023/12/12 10:21:22;;;;;;;13.70;3.17;;;8.50;99.90;;;;;;5035892;28;20035;-76
2023/12/12 10:23:51;;;;;;;13.85;3.78;;;8.60;99.90;;;;;;5030939;28;20045;-77
2023/12/12 10:26:31;;;;;;;34.97;4.22;;;8.70;99.90;;;;;;5029531;28;20125;-78
2023/12/12 10:28:59;;;;;;;24.77;4.03;;;8.80;99.90;;;;;;5049018;28;20037;-79
2023/12/12 10:31:24;;;;;;;21.83;3.05;;;8.90;99.90;;;;;;5031051;28;20435;-77
2023/12/12 10:33:51;;;;;;;16.65;3.67;;;8.90;99.90;;;;;;5032347;28;20037;-76
2023/12/12 10:36:16;;;;;;;16.75;4.43;;;9.00;99.90;;;;;;5030019;28;20037;-76
2023/12/12 10:38:42;;;;;;;17.27;3.35;;;9.10;99.90;;;;;;5048377;28;20095;-75
2023/12/12 10:41:12;;;;;;;16.20;3.83;;;9.20;99.90;;;;;;5047282;28;20049;-78
2023/12/12 10:43:42;;;;;;;21.15;2.85;;;9.20;99.90;;;;;;5029682;28;20200;-78
2023/12/12 10:46:15;;;;;;;15.50;4.07;;;9.20;99.90;;;;;;5047822;28;20567;-77
2023/12/12 10:48:46;;;;;;;22.52;3.63;;;9.30;99.90;;;;;;5048466;28;20033;-77
2023/12/12 10:51:13;;;;;;;19.48;3.30;;;9.40;99.90;;;;;;5045559;28;20037;-80
2023/12/12 10:53:41;;;;;;;14.75;3.28;;;9.50;99.90;;;;;;5030778;28;20052;-78
2023/12/12 10:56:08;;;;;;;13.50;3.03;;;9.50;99.90;;;;;;5047463;28;20517;-77
2023/12/12 10:58:35;;;;;;;15.40;2.80;;;9.60;99.90;;;;;;5030318;28;20040;-76
2023/12/12 11:01:02;;;;;;;15.07;2.70;;;9.60;99.90;;;;;;5026114;28;20028;-78
2023/12/12 11:03:29;;;;;;;9.85;2.90;;;9.60;99.90;;;;;;5029294;28;20064;-79
2023/12/12 11:05:58;;;;;;;20.55;4.18;;;9.60;99.90;;;;;;5049328;28;20056;-78
2023/12/12 11:08:26;;;;;;;15.32;2.00;;;9.60;99.90;;;;;;5032591;28;20040;-76
2023/12/12 11:10:53;;;;;;;14.32;2.70;;;9.60;99.90;;;;;;5046489;28;20041;-78
2023/12/12 11:13:25;;;;;;;16.38;3.33;;;9.60;99.90;;;;;;5031411;28;20035;-78
2023/12/12 11:15:53;;;;;;;22.50;4.13;;;9.60;99.90;;;;;;5049926;28;20041;-76
2023/12/12 11:18:20;;;;;;;19.27;3.22;;;9.60;99.90;;;;;;5029560;28;20063;-75
2023/12/12 11:20:47;;;;;;;13.57;3.00;;;9.70;99.90;;;;;;5047913;28;20471;-78
2023/12/12 11:23:45;;;;;;;12.55;3.88;;;9.70;99.90;;;;;;5047201;28;20396;-79
2023/12/12 11:26:14;;;;;;;12.38;3.45;;;9.70;99.90;;;;;;5030317;28;20088;-78
2023/12/12 11:28:40;;;;;;;11.82;2.50;;;9.70;99.90;;;;;;5029568;28;20686;-79
2023/12/12 11:31:07;;;;;;;14.23;3.30;;;9.70;99.90;;;;;;5029231;28;20037;-74
2023/12/12 11:33:36;;;;;;;23.42;5.00;;;9.70;99.90;;;;;;5029018;28;20041;-79
2023/12/12 11:36:01;;;;;;;20.15;2.95;;;9.80;99.90;;;;;;5045889;28;20365;-77
2023/12/12 11:38:33;;;;;;;18.27;3.15;;;9.80;99.90;;;;;;5029116;28;20075;-75
2023/12/12 11:41:16;;;;;;;11.27;3.45;;;9.90;99.90;;;;;;5046329;28;20057;-78
2023/12/12 11:43:43;;;;;;;21.92;3.00;;;9.90;99.90;;;;;;5046111;28;20051;-77
2023/12/12 11:46:19;;;;;;;10.95;2.72;;;9.90;99.90;;;;;;5027496;28;20045;-77
2023/12/12 11:48:45;;;;;;;16.45;2.80;;;10.00;99.90;;;;;;5030249;28;20040;-79
2023/12/12 11:51:42;;;;;;;18.23;3.10;;;10.00;99.90;;;;;;5028731;28;20033;-78
2023/12/12 11:54:19;;;;;;;14.07;3.63;;;10.00;99.90;;;;;;5044198;28;20114;-76
2023/12/12 11:56:44;;;;;;;16.52;3.45;;;10.00;99.90;;;;;;5043243;28;20037;-77
2023/12/12 11:59:10;;;;;;;13.55;3.28;;;10.10;99.90;;;;;;5025777;28;20037;-77
2023/12/12 12:01:36;;;;;;;11.23;2.80;;;10.10;99.90;;;;;;5030293;28;20036;-74
2023/12/12 12:04:01;;;;;;;9.77;2.72;;;10.20;99.90;;;;;;5044764;28;20048;-76
2023/12/12 12:06:27;;;;;;;18.60;5.10;;;10.30;99.90;;;;;;5027413;28;20029;-75
2023/12/12 12:08:53;;;;;;;14.77;2.90;;;10.30;99.90;;;;;;5028705;28;20037;-79
2023/12/12 12:11:19;;;;;;;24.35;4.90;;;10.30;99.90;;;;;;5044523;28;20060;-75
2023/12/12 12:13:44;;;;;;;16.13;4.05;;;10.20;99.90;;;;;;5043932;28;20056;-76
2023/12/12 12:16:11;;;;;;;18.63;2.83;;;10.20;99.90;;;;;;5043027;28;20029;-77
2023/12/12 12:18:37;;;;;;;12.38;2.40;;;10.30;99.90;;;;;;5044843;28;20052;-77
2023/12/12 12:21:05;;;;;;;14.77;2.38;;;10.30;99.90;;;;;;5043941;28;20035;-78
2023/12/12 12:23:32;;;;;;;8.77;2.45;;;10.30;99.90;;;;;;5044729;28;20064;-78
2023/12/12 12:26:01;;;;;;;20.15;2.85;;;10.40;99.90;;;;;;5046696;28;20135;-78
2023/12/12 12:28:35;;;;;;;12.63;2.53;;;10.40;99.90;;;;;;5044767;28;20055;-76
2023/12/12 12:31:01;;;;;;;9.85;2.70;;;10.50;99.90;;;;;;5043535;28;20573;-77
2023/12/12 12:33:31;;;;;;;8.35;2.03;;;10.50;99.90;;;;;;5027864;28;20485;-77
2023/12/12 12:35:57;;;;;;;11.77;2.35;;;10.50;99.90;;;;;;5042970;28;20072;-77
2023/12/12 12:38:27;;;;;;;13.60;2.53;;;10.50;99.90;;;;;;5027702;28;20461;-77
2023/12/12 12:40:53;;;;;;;;;;;10.50;99.90;;;;;;5027385;28;20040;-79
2023/12/12 12:43:19;;;;;;;11.23;2.63;;;10.50;99.90;;;;;;5027457;28;19912;-77
2023/12/12 12:45:45;;;;;;;14.15;2.08;;;10.50;99.90;;;;;;5029167;28;20067;-77
2023/12/12 12:48:11;;;;;;;10.55;2.10;;;10.40;99.90;;;;;;5032203;28;20028;-79